sensor_id;sensor_type;location;lat;lon;timestamp;temperature;humidity
80212;DHT22;69530;37.974;23.708;2023-05-10T00:01:23;23.70;39.50
80212;DHT22;69530;37.974;23.708;2023-05-10T00:03:49;23.60;39.40
80212;DHT22;69530;37.974;23.708;2023-05-10T00:06:15;23.60;39.40
80212;DHT22;69530;37.974;23.708;2023-05-10T00:08:41;23.60;39.40
80212;DHT22;69530;37.974;23.708;2023-05-10T00:11:07;23.60;39.40
80212;DHT22;69530;37.974;23.708;2023-05-10T00:13:32;23.70;39.40
80212;DHT22;69530;37.974;23.708;2023-05-10T00:15:58;23.60;39.40
80212;DHT22;69530;37.974;23.708;2023-05-10T00:18:24;23.60;39.40
80212;DHT22;69530;37.974;23.708;2023-05-10T00:20:49;23.60;39.40
80212;DHT22;69530;37.974;23.708;2023-05-10T00:23:15;23.60;39.40
80212;DHT22;69530;37.974;23.708;2023-05-10T00:25:41;23.60;39.40
80212;DHT22;69530;37.974;23.708;2023-05-10T00:28:07;23.60;39.40
80212;DHT22;69530;37.974;23.708;2023-05-10T00:30:32;23.60;39.40
80212;DHT22;69530;37.974;23.708;2023-05-10T00:32:58;23.60;39.40
80212;DHT22;69530;37.974;23.708;2023-05-10T00:35:24;23.60;39.40
80212;DHT22;69530;37.974;23.708;2023-05-10T00:37:50;23.60;39.50
80212;DHT22;69530;37.974;23.708;2023-05-10T00:40:15;23.60;39.50
80212;DHT22;69530;37.974;23.708;2023-05-10T00:42:41;23.60;39.50
80212;DHT22;69530;37.974;23.708;2023-05-10T00:45:07;23.60;39.50
80212;DHT22;69530;37.974;23.708;2023-05-10T00:47:34;23.60;39.50
80212;DHT22;69530;37.974;23.708;2023-05-10T00:50:00;23.60;39.50
80212;DHT22;69530;37.974;23.708;2023-05-10T00:52:27;23.60;39.50
80212;DHT22;69530;37.974;23.708;2023-05-10T00:54:53;23.60;39.60
80212;DHT22;69530;37.974;23.708;2023-05-10T00:57:19;23.60;39.60
80212;DHT22;69530;37.974;23.708;2023-05-10T00:59:46;23.60;39.50
80212;DHT22;69530;37.974;23.708;2023-05-10T01:02:12;23.60;39.50
80212;DHT22;69530;37.974;23.708;2023-05-10T01:04:38;23.60;39.50
80212;DHT22;69530;37.974;23.708;2023-05-10T01:07:04;23.60;39.50
80212;DHT22;69530;37.974;23.708;2023-05-10T01:09:30;23.60;39.40
80212;DHT22;69530;37.974;23.708;2023-05-10T01:11:57;23.60;39.40
80212;DHT22;69530;37.974;23.708;2023-05-10T01:14:24;23.60;39.40
80212;DHT22;69530;37.974;23.708;2023-05-10T01:16:50;23.60;39.40
80212;DHT22;69530;37.974;23.708;2023-05-10T01:19:25;23.60;39.40
80212;DHT22;69530;37.974;23.708;2023-05-10T01:33:19;23.60;39.20
80212;DHT22;69530;37.974;23.708;2023-05-10T01:38:47;23.60;39.20
80212;DHT22;69530;37.974;23.708;2023-05-10T01:44:01;23.60;39.20
80212;DHT22;69530;37.974;23.708;2023-05-10T01:46:34;23.60;39.10
80212;DHT22;69530;37.974;23.708;2023-05-10T01:49:03;23.60;39.10
80212;DHT22;69530;37.974;23.708;2023-05-10T01:51:36;23.50;39.00
80212;DHT22;69530;37.974;23.708;2023-05-10T01:54:05;23.50;39.00
80212;DHT22;69530;37.974;23.708;2023-05-10T01:56:33;23.50;39.00
80212;DHT22;69530;37.974;23.708;2023-05-10T01:59:00;23.60;39.00
80212;DHT22;69530;37.974;23.708;2023-05-10T02:01:30;23.60;39.00
80212;DHT22;69530;37.974;23.708;2023-05-10T02:03:58;23.60;39.00
80212;DHT22;69530;37.974;23.708;2023-05-10T02:06:25;23.60;38.90
80212;DHT22;69530;37.974;23.708;2023-05-10T02:08:53;23.60;38.90
80212;DHT22;69530;37.974;23.708;2023-05-10T02:11:20;23.60;38.90
80212;DHT22;69530;37.974;23.708;2023-05-10T02:13:48;23.60;38.90
80212;DHT22;69530;37.974;23.708;2023-05-10T02:16:16;23.60;38.80
80212;DHT22;69530;37.974;23.708;2023-05-10T02:18:43;23.60;38.80
80212;DHT22;69530;37.974;23.708;2023-05-10T02:21:10;23.60;38.80
80212;DHT22;69530;37.974;23.708;2023-05-10T02:23:36;23.60;38.80
80212;DHT22;69530;37.974;23.708;2023-05-10T02:26:03;23.60;38.80
80212;DHT22;69530;37.974;23.708;2023-05-10T02:28:31;23.50;38.70
80212;DHT22;69530;37.974;23.708;2023-05-10T02:30:57;23.50;38.70
80212;DHT22;69530;37.974;23.708;2023-05-10T02:33:24;23.60;38.80
80212;DHT22;69530;37.974;23.708;2023-05-10T02:35:51;23.60;38.80
80212;DHT22;69530;37.974;23.708;2023-05-10T02:38:18;23.60;38.70
80212;DHT22;69530;37.974;23.708;2023-05-10T02:40:46;23.60;38.80
80212;DHT22;69530;37.974;23.708;2023-05-10T02:43:14;23.60;38.70
80212;DHT22;69530;37.974;23.708;2023-05-10T02:45:41;23.60;38.70
80212;DHT22;69530;37.974;23.708;2023-05-10T02:48:08;23.60;38.70
80212;DHT22;69530;37.974;23.708;2023-05-10T02:50:35;23.50;38.70
80212;DHT22;69530;37.974;23.708;2023-05-10T02:53:15;23.60;38.80
80212;DHT22;69530;37.974;23.708;2023-05-10T02:55:43;23.60;38.70
80212;DHT22;69530;37.974;23.708;2023-05-10T02:58:11;23.50;38.70
80212;DHT22;69530;37.974;23.708;2023-05-10T03:00:36;23.50;38.60
80212;DHT22;69530;37.974;23.708;2023-05-10T03:03:02;23.50;38.60
80212;DHT22;69530;37.974;23.708;2023-05-10T03:05:28;23.50;38.60
80212;DHT22;69530;37.974;23.708;2023-05-10T03:07:54;23.50;38.60
80212;DHT22;69530;37.974;23.708;2023-05-10T03:10:22;23.50;38.60
80212;DHT22;69530;37.974;23.708;2023-05-10T03:16:08;23.50;38.50
80212;DHT22;69530;37.974;23.708;2023-05-10T03:18:44;23.50;38.60
80212;DHT22;69530;37.974;23.708;2023-05-10T03:21:13;23.50;38.60
80212;DHT22;69530;37.974;23.708;2023-05-10T03:23:50;23.50;38.60
80212;DHT22;69530;37.974;23.708;2023-05-10T03:26:27;23.50;38.60
80212;DHT22;69530;37.974;23.708;2023-05-10T03:28:53;23.50;38.50
80212;DHT22;69530;37.974;23.708;2023-05-10T03:31:19;23.50;38.50
80212;DHT22;69530;37.974;23.708;2023-05-10T03:33:49;23.50;38.50
80212;DHT22;69530;37.974;23.708;2023-05-10T03:36:14;23.50;38.50
80212;DHT22;69530;37.974;23.708;2023-05-10T03:38:40;23.50;38.50
80212;DHT22;69530;37.974;23.708;2023-05-10T03:41:06;23.50;38.40
80212;DHT22;69530;37.974;23.708;2023-05-10T03:43:31;23.50;38.40
80212;DHT22;69530;37.974;23.708;2023-05-10T03:45:57;23.50;38.40
80212;DHT22;69530;37.974;23.708;2023-05-10T03:48:23;23.50;38.40
80212;DHT22;69530;37.974;23.708;2023-05-10T03:50:48;23.50;38.30
80212;DHT22;69530;37.974;23.708;2023-05-10T03:53:17;23.50;38.30
80212;DHT22;69530;37.974;23.708;2023-05-10T03:55:42;23.50;38.30
80212;DHT22;69530;37.974;23.708;2023-05-10T03:58:11;23.50;38.30
80212;DHT22;69530;37.974;23.708;2023-05-10T04:00:37;23.50;38.30
80212;DHT22;69530;37.974;23.708;2023-05-10T04:03:03;23.50;38.30
80212;DHT22;69530;37.974;23.708;2023-05-10T04:05:29;23.50;38.30
80212;DHT22;69530;37.974;23.708;2023-05-10T04:07:55;23.50;38.20
80212;DHT22;69530;37.974;23.708;2023-05-10T04:10:20;23.50;38.20
80212;DHT22;69530;37.974;23.708;2023-05-10T04:12:46;23.50;38.10
80212;DHT22;69530;37.974;23.708;2023-05-10T04:15:12;23.50;38.20
80212;DHT22;69530;37.974;23.708;2023-05-10T04:17:38;23.50;38.10
80212;DHT22;69530;37.974;23.708;2023-05-10T04:20:04;23.50;38.30
80212;DHT22;69530;37.974;23.708;2023-05-10T04:22:30;23.50;38.60
80212;DHT22;69530;37.974;23.708;2023-05-10T04:24:55;23.50;39.00
80212;DHT22;69530;37.974;23.708;2023-05-10T04:27:21;23.50;38.90
80212;DHT22;69530;37.974;23.708;2023-05-10T04:29:47;23.50;38.80
80212;DHT22;69530;37.974;23.708;2023-05-10T04:32:12;23.50;38.80
80212;DHT22;69530;37.974;23.708;2023-05-10T04:34:38;23.50;38.80
80212;DHT22;69530;37.974;23.708;2023-05-10T04:37:04;23.50;38.70
80212;DHT22;69530;37.974;23.708;2023-05-10T04:39:30;23.50;38.70
80212;DHT22;69530;37.974;23.708;2023-05-10T04:41:55;23.50;38.60
80212;DHT22;69530;37.974;23.708;2023-05-10T04:44:21;23.50;38.50
80212;DHT22;69530;37.974;23.708;2023-05-10T04:46:46;23.50;38.50
80212;DHT22;69530;37.974;23.708;2023-05-10T04:49:12;23.50;38.50
80212;DHT22;69530;37.974;23.708;2023-05-10T04:51:38;23.50;38.50
80212;DHT22;69530;37.974;23.708;2023-05-10T04:54:04;23.50;38.40
80212;DHT22;69530;37.974;23.708;2023-05-10T04:56:29;23.50;38.30
80212;DHT22;69530;37.974;23.708;2023-05-10T04:58:55;23.50;38.30
80212;DHT22;69530;37.974;23.708;2023-05-10T05:01:21;23.60;38.30
80212;DHT22;69530;37.974;23.708;2023-05-10T05:03:48;23.60;38.20
80212;DHT22;69530;37.974;23.708;2023-05-10T05:06:14;23.60;38.20
80212;DHT22;69530;37.974;23.708;2023-05-10T05:08:40;23.60;38.20
80212;DHT22;69530;37.974;23.708;2023-05-10T05:11:05;23.60;38.10
80212;DHT22;69530;37.974;23.708;2023-05-10T05:13:31;23.70;38.10
80212;DHT22;69530;37.974;23.708;2023-05-10T05:15:59;23.70;38.00
80212;DHT22;69530;37.974;23.708;2023-05-10T05:18:25;23.80;37.90
80212;DHT22;69530;37.974;23.708;2023-05-10T05:20:51;23.80;37.80
80212;DHT22;69530;37.974;23.708;2023-05-10T05:23:16;23.90;37.70
80212;DHT22;69530;37.974;23.708;2023-05-10T05:25:43;23.90;37.60
80212;DHT22;69530;37.974;23.708;2023-05-10T05:28:09;24.00;37.50
80212;DHT22;69530;37.974;23.708;2023-05-10T05:30:34;24.00;37.40
80212;DHT22;69530;37.974;23.708;2023-05-10T05:33:00;24.00;37.40
80212;DHT22;69530;37.974;23.708;2023-05-10T05:35:26;24.00;37.40
80212;DHT22;69530;37.974;23.708;2023-05-10T05:37:51;24.00;38.30
80212;DHT22;69530;37.974;23.708;2023-05-10T05:40:17;24.00;37.40
80212;DHT22;69530;37.974;23.708;2023-05-10T05:42:43;24.00;37.40
80212;DHT22;69530;37.974;23.708;2023-05-10T05:45:09;24.00;37.40
80212;DHT22;69530;37.974;23.708;2023-05-10T05:47:38;24.00;37.40
80212;DHT22;69530;37.974;23.708;2023-05-10T05:50:05;24.00;37.40
80212;DHT22;69530;37.974;23.708;2023-05-10T05:52:31;24.00;37.30
80212;DHT22;69530;37.974;23.708;2023-05-10T05:54:56;24.00;37.30
80212;DHT22;69530;37.974;23.708;2023-05-10T05:57:22;24.00;37.30
80212;DHT22;69530;37.974;23.708;2023-05-10T05:59:48;24.00;37.30
80212;DHT22;69530;37.974;23.708;2023-05-10T06:02:14;24.10;37.20
80212;DHT22;69530;37.974;23.708;2023-05-10T06:04:39;24.10;37.10
80212;DHT22;69530;37.974;23.708;2023-05-10T06:07:05;24.10;37.00
80212;DHT22;69530;37.974;23.708;2023-05-10T06:09:31;24.10;37.10
80212;DHT22;69530;37.974;23.708;2023-05-10T06:11:57;24.10;37.10
80212;DHT22;69530;37.974;23.708;2023-05-10T06:14:23;24.10;37.00
80212;DHT22;69530;37.974;23.708;2023-05-10T06:16:48;24.10;37.00
80212;DHT22;69530;37.974;23.708;2023-05-10T06:19:14;24.10;36.90
80212;DHT22;69530;37.974;23.708;2023-05-10T06:21:40;24.10;36.90
80212;DHT22;69530;37.974;23.708;2023-05-10T06:24:05;24.10;36.80
80212;DHT22;69530;37.974;23.708;2023-05-10T06:26:32;24.20;36.80
80212;DHT22;69530;37.974;23.708;2023-05-10T06:28:58;24.20;36.70
80212;DHT22;69530;37.974;23.708;2023-05-10T06:31:23;24.20;36.60
80212;DHT22;69530;37.974;23.708;2023-05-10T06:33:49;24.30;36.60
80212;DHT22;69530;37.974;23.708;2023-05-10T06:36:15;24.30;36.50
80212;DHT22;69530;37.974;23.708;2023-05-10T06:38:40;24.30;36.50
80212;DHT22;69530;37.974;23.708;2023-05-10T06:41:06;24.30;36.40
80212;DHT22;69530;37.974;23.708;2023-05-10T06:43:32;24.30;36.40
80212;DHT22;69530;37.974;23.708;2023-05-10T06:45:58;24.30;36.40
80212;DHT22;69530;37.974;23.708;2023-05-10T06:48:23;24.30;36.40
80212;DHT22;69530;37.974;23.708;2023-05-10T06:50:49;24.30;36.30
80212;DHT22;69530;37.974;23.708;2023-05-10T06:53:15;24.30;36.30
80212;DHT22;69530;37.974;23.708;2023-05-10T06:55:40;24.30;36.30
80212;DHT22;69530;37.974;23.708;2023-05-10T06:58:06;24.30;36.20
80212;DHT22;69530;37.974;23.708;2023-05-10T07:00:32;24.30;36.20
80212;DHT22;69530;37.974;23.708;2023-05-10T07:02:58;24.30;36.20
80212;DHT22;69530;37.974;23.708;2023-05-10T07:05:24;24.30;36.30
80212;DHT22;69530;37.974;23.708;2023-05-10T07:07:50;24.30;36.10
80212;DHT22;69530;37.974;23.708;2023-05-10T07:10:15;24.40;36.20
80212;DHT22;69530;37.974;23.708;2023-05-10T07:12:41;24.30;36.10
80212;DHT22;69530;37.974;23.708;2023-05-10T07:15:07;24.30;36.10
80212;DHT22;69530;37.974;23.708;2023-05-10T07:17:33;24.30;36.20
80212;DHT22;69530;37.974;23.708;2023-05-10T07:19:59;24.40;36.20
80212;DHT22;69530;37.974;23.708;2023-05-10T07:22:26;24.40;36.20
80212;DHT22;69530;37.974;23.708;2023-05-10T07:24:51;24.40;36.20
80212;DHT22;69530;37.974;23.708;2023-05-10T07:27:17;24.40;36.10
80212;DHT22;69530;37.974;23.708;2023-05-10T07:29:43;24.40;36.10
80212;DHT22;69530;37.974;23.708;2023-05-10T07:32:08;24.30;36.00
80212;DHT22;69530;37.974;23.708;2023-05-10T07:34:34;24.40;36.10
80212;DHT22;69530;37.974;23.708;2023-05-10T07:37:00;24.40;36.10
80212;DHT22;69530;37.974;23.708;2023-05-10T07:39:29;24.40;36.20
80212;DHT22;69530;37.974;23.708;2023-05-10T07:41:55;24.30;36.10
80212;DHT22;69530;37.974;23.708;2023-05-10T07:44:21;24.30;36.10
80212;DHT22;69530;37.974;23.708;2023-05-10T07:46:47;24.30;36.10
80212;DHT22;69530;37.974;23.708;2023-05-10T07:49:13;24.30;36.10
80212;DHT22;69530;37.974;23.708;2023-05-10T07:51:39;24.30;36.10
80212;DHT22;69530;37.974;23.708;2023-05-10T07:54:05;24.40;36.10
80212;DHT22;69530;37.974;23.708;2023-05-10T07:56:31;24.30;36.10
80212;DHT22;69530;37.974;23.708;2023-05-10T07:58:58;24.30;36.20
80212;DHT22;69530;37.974;23.708;2023-05-10T08:01:25;24.30;36.10
80212;DHT22;69530;37.974;23.708;2023-05-10T08:03:51;24.30;36.20
80212;DHT22;69530;37.974;23.708;2023-05-10T08:06:18;24.30;36.20
80212;DHT22;69530;37.974;23.708;2023-05-10T08:08:45;24.30;36.20
80212;DHT22;69530;37.974;23.708;2023-05-10T08:11:15;24.30;36.20
80212;DHT22;69530;37.974;23.708;2023-05-10T08:13:41;24.30;36.20
80212;DHT22;69530;37.974;23.708;2023-05-10T08:16:06;24.30;36.20
80212;DHT22;69530;37.974;23.708;2023-05-10T08:18:32;24.30;36.10
80212;DHT22;69530;37.974;23.708;2023-05-10T08:20:58;24.30;36.10
80212;DHT22;69530;37.974;23.708;2023-05-10T08:23:23;24.30;36.10
80212;DHT22;69530;37.974;23.708;2023-05-10T08:25:49;24.30;36.10
80212;DHT22;69530;37.974;23.708;2023-05-10T08:28:15;24.40;36.10
80212;DHT22;69530;37.974;23.708;2023-05-10T08:30:40;24.30;35.90
80212;DHT22;69530;37.974;23.708;2023-05-10T08:33:06;24.30;35.90
80212;DHT22;69530;37.974;23.708;2023-05-10T08:35:32;24.30;35.90
80212;DHT22;69530;37.974;23.708;2023-05-10T08:37:59;24.30;35.80
80212;DHT22;69530;37.974;23.708;2023-05-10T08:40:26;24.30;35.80
80212;DHT22;69530;37.974;23.708;2023-05-10T08:43:05;24.30;35.80
80212;DHT22;69530;37.974;23.708;2023-05-10T08:45:33;24.30;35.80
80212;DHT22;69530;37.974;23.708;2023-05-10T08:48:02;24.30;35.80
80212;DHT22;69530;37.974;23.708;2023-05-10T08:50:27;24.30;36.00
80212;DHT22;69530;37.974;23.708;2023-05-10T08:52:59;24.30;35.80
80212;DHT22;69530;37.974;23.708;2023-05-10T08:55:25;24.30;35.80
80212;DHT22;69530;37.974;23.708;2023-05-10T08:57:51;24.30;35.70
80212;DHT22;69530;37.974;23.708;2023-05-10T09:00:18;24.30;35.80
80212;DHT22;69530;37.974;23.708;2023-05-10T09:02:44;24.30;35.70
80212;DHT22;69530;37.974;23.708;2023-05-10T09:05:12;24.30;36.80
80212;DHT22;69530;37.974;23.708;2023-05-10T09:07:37;24.30;35.70
80212;DHT22;69530;37.974;23.708;2023-05-10T09:10:04;24.30;35.70
80212;DHT22;69530;37.974;23.708;2023-05-10T09:12:31;24.30;35.80
80212;DHT22;69530;37.974;23.708;2023-05-10T09:14:59;24.30;35.70
80212;DHT22;69530;37.974;23.708;2023-05-10T09:17:25;24.30;35.70
80212;DHT22;69530;37.974;23.708;2023-05-10T09:20:02;24.30;35.90
80212;DHT22;69530;37.974;23.708;2023-05-10T09:22:30;24.30;35.70
80212;DHT22;69530;37.974;23.708;2023-05-10T09:25:14;24.30;35.70
80212;DHT22;69530;37.974;23.708;2023-05-10T09:27:41;24.30;35.80
80212;DHT22;69530;37.974;23.708;2023-05-10T09:30:10;24.30;35.80
80212;DHT22;69530;37.974;23.708;2023-05-10T09:32:46;24.30;35.70
80212;DHT22;69530;37.974;23.708;2023-05-10T09:35:14;24.30;35.70
80212;DHT22;69530;37.974;23.708;2023-05-10T09:37:42;24.30;35.70
80212;DHT22;69530;37.974;23.708;2023-05-10T09:40:12;24.30;35.60
80212;DHT22;69530;37.974;23.708;2023-05-10T09:42:38;24.30;35.60
80212;DHT22;69530;37.974;23.708;2023-05-10T09:45:04;24.30;35.50
80212;DHT22;69530;37.974;23.708;2023-05-10T09:47:39;24.30;35.50
80212;DHT22;69530;37.974;23.708;2023-05-10T09:50:05;24.30;35.50
80212;DHT22;69530;37.974;23.708;2023-05-10T09:52:52;24.30;35.50
80212;DHT22;69530;37.974;23.708;2023-05-10T09:55:37;24.30;35.40
80212;DHT22;69530;37.974;23.708;2023-05-10T09:58:03;24.30;35.50
80212;DHT22;69530;37.974;23.708;2023-05-10T10:00:38;24.30;35.50
80212;DHT22;69530;37.974;23.708;2023-05-10T10:03:04;24.30;35.40
80212;DHT22;69530;37.974;23.708;2023-05-10T10:05:32;24.30;35.40
80212;DHT22;69530;37.974;23.708;2023-05-10T10:07:58;24.30;35.40
80212;DHT22;69530;37.974;23.708;2023-05-10T10:10:26;24.30;35.40
80212;DHT22;69530;37.974;23.708;2023-05-10T10:12:52;24.30;35.50
80212;DHT22;69530;37.974;23.708;2023-05-10T10:15:20;24.30;35.50
80212;DHT22;69530;37.974;23.708;2023-05-10T10:17:46;24.30;35.40
80212;DHT22;69530;37.974;23.708;2023-05-10T10:20:14;24.30;35.40
80212;DHT22;69530;37.974;23.708;2023-05-10T10:22:40;24.30;35.30
80212;DHT22;69530;37.974;23.708;2023-05-10T10:25:07;24.30;35.30
80212;DHT22;69530;37.974;23.708;2023-05-10T10:30:43;24.30;35.30
80212;DHT22;69530;37.974;23.708;2023-05-10T10:36:15;24.30;35.20
80212;DHT22;69530;37.974;23.708;2023-05-10T10:41:35;24.30;35.40
80212;DHT22;69530;37.974;23.708;2023-05-10T10:44:23;24.30;35.30
80212;DHT22;69530;37.974;23.708;2023-05-10T10:52:28;24.30;35.50
80212;DHT22;69530;37.974;23.708;2023-05-10T10:57:28;24.30;35.50
80212;DHT22;69530;37.974;23.708;2023-05-10T11:05:41;24.30;35.60
80212;DHT22;69530;37.974;23.708;2023-05-10T11:08:16;24.30;35.60
80212;DHT22;69530;37.974;23.708;2023-05-10T11:13:34;24.30;35.70
80212;DHT22;69530;37.974;23.708;2023-05-10T11:19:07;24.30;35.90
80212;DHT22;69530;37.974;23.708;2023-05-10T11:21:34;24.30;35.90
80212;DHT22;69530;37.974;23.708;2023-05-10T11:24:01;24.20;36.00
80212;DHT22;69530;37.974;23.708;2023-05-10T11:26:35;24.30;36.00
80212;DHT22;69530;37.974;23.708;2023-05-10T11:29:01;24.30;36.10
80212;DHT22;69530;37.974;23.708;2023-05-10T11:31:28;24.30;36.10
80212;DHT22;69530;37.974;23.708;2023-05-10T11:33:58;24.30;36.10
80212;DHT22;69530;37.974;23.708;2023-05-10T11:36:31;24.30;36.10
80212;DHT22;69530;37.974;23.708;2023-05-10T11:38:57;24.30;36.10
80212;DHT22;69530;37.974;23.708;2023-05-10T11:41:24;24.30;36.20
80212;DHT22;69530;37.974;23.708;2023-05-10T11:43:51;24.30;36.20
80212;DHT22;69530;37.974;23.708;2023-05-10T11:46:22;24.30;36.40
80212;DHT22;69530;37.974;23.708;2023-05-10T11:48:52;24.30;36.40
80212;DHT22;69530;37.974;23.708;2023-05-10T11:51:23;24.30;36.40
80212;DHT22;69530;37.974;23.708;2023-05-10T11:53:50;24.30;36.50
80212;DHT22;69530;37.974;23.708;2023-05-10T11:56:16;24.30;36.50
80212;DHT22;69530;37.974;23.708;2023-05-10T11:58:42;24.30;36.50
80212;DHT22;69530;37.974;23.708;2023-05-10T12:01:09;24.30;36.70
80212;DHT22;69530;37.974;23.708;2023-05-10T12:03:36;24.30;36.70
80212;DHT22;69530;37.974;23.708;2023-05-10T12:06:02;24.30;36.70
80212;DHT22;69530;37.974;23.708;2023-05-10T12:08:29;24.30;37.80
80212;DHT22;69530;37.974;23.708;2023-05-10T12:11:06;24.30;36.90
80212;DHT22;69530;37.974;23.708;2023-05-10T12:13:32;24.30;36.80
80212;DHT22;69530;37.974;23.708;2023-05-10T12:15:58;24.30;36.90
80212;DHT22;69530;37.974;23.708;2023-05-10T12:18:24;24.20;36.90
80212;DHT22;69530;37.974;23.708;2023-05-10T12:20:53;24.20;36.90
80212;DHT22;69530;37.974;23.708;2023-05-10T12:23:20;24.30;36.90
80212;DHT22;69530;37.974;23.708;2023-05-10T12:25:45;24.30;36.90
80212;DHT22;69530;37.974;23.708;2023-05-10T12:28:11;24.30;36.90
80212;DHT22;69530;37.974;23.708;2023-05-10T12:30:38;24.30;36.90
80212;DHT22;69530;37.974;23.708;2023-05-10T12:33:12;24.30;36.90
80212;DHT22;69530;37.974;23.708;2023-05-10T12:35:52;24.30;36.90
80212;DHT22;69530;37.974;23.708;2023-05-10T12:38:35;24.30;36.90
80212;DHT22;69530;37.974;23.708;2023-05-10T12:41:06;24.30;36.90
80212;DHT22;69530;37.974;23.708;2023-05-10T12:43:33;24.30;37.90
80212;DHT22;69530;37.974;23.708;2023-05-10T12:46:04;24.30;37.00
80212;DHT22;69530;37.974;23.708;2023-05-10T12:48:30;24.30;36.90
80212;DHT22;69530;37.974;23.708;2023-05-10T12:50:56;24.20;37.00
80212;DHT22;69530;37.974;23.708;2023-05-10T12:53:22;24.30;37.10
80212;DHT22;69530;37.974;23.708;2023-05-10T12:55:48;24.30;37.10
80212;DHT22;69530;37.974;23.708;2023-05-10T12:58:14;24.30;37.10
80212;DHT22;69530;37.974;23.708;2023-05-10T13:00:39;24.20;37.10
80212;DHT22;69530;37.974;23.708;2023-05-10T13:03:05;24.20;37.10
80212;DHT22;69530;37.974;23.708;2023-05-10T13:05:34;24.20;37.20
80212;DHT22;69530;37.974;23.708;2023-05-10T13:08:00;24.20;37.20
80212;DHT22;69530;37.974;23.708;2023-05-10T13:10:28;24.20;37.30
80212;DHT22;69530;37.974;23.708;2023-05-10T13:12:53;24.20;37.30
80212;DHT22;69530;37.974;23.708;2023-05-10T13:15:19;24.20;37.30
80212;DHT22;69530;37.974;23.708;2023-05-10T13:17:45;24.20;37.30
80212;DHT22;69530;37.974;23.708;2023-05-10T13:20:11;24.20;38.00
80212;DHT22;69530;37.974;23.708;2023-05-10T13:22:36;24.20;37.40
80212;DHT22;69530;37.974;23.708;2023-05-10T13:25:02;24.20;37.40
80212;DHT22;69530;37.974;23.708;2023-05-10T13:27:28;24.20;37.40
80212;DHT22;69530;37.974;23.708;2023-05-10T13:29:54;24.20;37.50
80212;DHT22;69530;37.974;23.708;2023-05-10T13:32:20;24.10;37.50
80212;DHT22;69530;37.974;23.708;2023-05-10T13:34:46;24.20;37.70
80212;DHT22;69530;37.974;23.708;2023-05-10T13:37:12;24.20;37.50
80212;DHT22;69530;37.974;23.708;2023-05-10T13:39:38;24.20;37.60
80212;DHT22;69530;37.974;23.708;2023-05-10T13:42:06;24.10;37.60
80212;DHT22;69530;37.974;23.708;2023-05-10T13:44:32;24.10;37.70
80212;DHT22;69530;37.974;23.708;2023-05-10T13:46:59;24.10;37.70
80212;DHT22;69530;37.974;23.708;2023-05-10T13:49:25;24.10;37.80
80212;DHT22;69530;37.974;23.708;2023-05-10T13:51:51;24.10;37.70
80212;DHT22;69530;37.974;23.708;2023-05-10T13:54:17;24.10;37.70
80212;DHT22;69530;37.974;23.708;2023-05-10T13:56:45;24.10;37.80
80212;DHT22;69530;37.974;23.708;2023-05-10T13:59:13;24.10;37.80
80212;DHT22;69530;37.974;23.708;2023-05-10T14:01:40;24.10;37.80
80212;DHT22;69530;37.974;23.708;2023-05-10T14:04:06;24.10;37.80
80212;DHT22;69530;37.974;23.708;2023-05-10T14:06:34;24.10;37.80
80212;DHT22;69530;37.974;23.708;2023-05-10T14:08:59;24.10;37.80
80212;DHT22;69530;37.974;23.708;2023-05-10T14:11:25;24.10;37.90
80212;DHT22;69530;37.974;23.708;2023-05-10T14:13:51;24.10;37.90
80212;DHT22;69530;37.974;23.708;2023-05-10T14:16:16;24.10;37.80
80212;DHT22;69530;37.974;23.708;2023-05-10T14:18:42;24.10;37.80
80212;DHT22;69530;37.974;23.708;2023-05-10T14:21:08;24.10;37.80
80212;DHT22;69530;37.974;23.708;2023-05-10T14:23:34;24.20;37.90
80212;DHT22;69530;37.974;23.708;2023-05-10T14:26:00;24.10;37.80
80212;DHT22;69530;37.974;23.708;2023-05-10T14:28:25;24.10;37.80
80212;DHT22;69530;37.974;23.708;2023-05-10T14:30:51;24.10;37.80
80212;DHT22;69530;37.974;23.708;2023-05-10T14:33:17;24.10;37.80
80212;DHT22;69530;37.974;23.708;2023-05-10T14:35:43;24.10;37.80
80212;DHT22;69530;37.974;23.708;2023-05-10T14:38:09;24.10;37.90
80212;DHT22;69530;37.974;23.708;2023-05-10T14:40:36;24.10;37.90
80212;DHT22;69530;37.974;23.708;2023-05-10T14:43:01;24.10;37.90
80212;DHT22;69530;37.974;23.708;2023-05-10T14:45:27;24.10;37.90
80212;DHT22;69530;37.974;23.708;2023-05-10T14:47:53;24.10;37.90
80212;DHT22;69530;37.974;23.708;2023-05-10T14:50:19;24.20;38.00
80212;DHT22;69530;37.974;23.708;2023-05-10T14:52:44;24.20;37.90
80212;DHT22;69530;37.974;23.708;2023-05-10T14:55:10;24.10;37.90
80212;DHT22;69530;37.974;23.708;2023-05-10T14:57:36;24.10;37.90
80212;DHT22;69530;37.974;23.708;2023-05-10T15:00:03;24.10;38.00
80212;DHT22;69530;37.974;23.708;2023-05-10T15:02:30;24.10;37.90
80212;DHT22;69530;37.974;23.708;2023-05-10T15:04:56;24.10;38.00
80212;DHT22;69530;37.974;23.708;2023-05-10T15:07:23;24.10;38.00
80212;DHT22;69530;37.974;23.708;2023-05-10T15:09:49;24.20;38.10
80212;DHT22;69530;37.974;23.708;2023-05-10T15:12:15;24.10;38.00
80212;DHT22;69530;37.974;23.708;2023-05-10T15:14:41;24.10;38.00
80212;DHT22;69530;37.974;23.708;2023-05-10T15:17:07;24.10;38.00
80212;DHT22;69530;37.974;23.708;2023-05-10T15:19:33;24.10;38.00
80212;DHT22;69530;37.974;23.708;2023-05-10T15:21:59;24.10;38.00
80212;DHT22;69530;37.974;23.708;2023-05-10T15:24:25;24.10;38.00
80212;DHT22;69530;37.974;23.708;2023-05-10T15:26:50;24.10;38.00
80212;DHT22;69530;37.974;23.708;2023-05-10T15:29:16;24.10;38.00
80212;DHT22;69530;37.974;23.708;2023-05-10T15:31:49;24.10;38.10
80212;DHT22;69530;37.974;23.708;2023-05-10T15:34:16;24.10;38.10
80212;DHT22;69530;37.974;23.708;2023-05-10T15:36:43;24.10;38.10
80212;DHT22;69530;37.974;23.708;2023-05-10T15:39:10;24.10;38.10
80212;DHT22;69530;37.974;23.708;2023-05-10T15:41:36;24.00;38.10
80212;DHT22;69530;37.974;23.708;2023-05-10T15:44:02;24.00;38.10
80212;DHT22;69530;37.974;23.708;2023-05-10T15:46:28;24.00;38.10
80212;DHT22;69530;37.974;23.708;2023-05-10T15:48:54;24.00;38.10
80212;DHT22;69530;37.974;23.708;2023-05-10T15:51:20;24.00;38.20
80212;DHT22;69530;37.974;23.708;2023-05-10T15:53:46;24.00;38.10
80212;DHT22;69530;37.974;23.708;2023-05-10T15:56:12;24.00;38.10
80212;DHT22;69530;37.974;23.708;2023-05-10T15:58:39;24.00;38.10
80212;DHT22;69530;37.974;23.708;2023-05-10T16:01:05;24.00;39.10
80212;DHT22;69530;37.974;23.708;2023-05-10T16:03:32;24.00;38.10